sensor_id;sensor_type;location;lat;lon;timestamp;P1;durP1;ratioP1;P2;durP2;ratioP2
3549;SDS011;45572;48.804;8.330;2023-10-19T00:00:32;25.45;;;15.25;;
3549;SDS011;45572;48.804;8.330;2023-10-19T00:03:00;22.45;;;14.55;;
3549;SDS011;45572;48.804;8.330;2023-10-19T00:05:29;23.40;;;16.05;;
3549;SDS011;45572;48.804;8.330;2023-10-19T00:07:58;25.77;;;14.65;;
3549;SDS011;45572;48.804;8.330;2023-10-19T00:10:28;27.10;;;15.32;;
3549;SDS011;45572;48.804;8.330;2023-10-19T00:12:59;23.85;;;15.57;;
3549;SDS011;45572;48.804;8.330;2023-10-19T00:15:30;25.02;;;16.52;;
3549;SDS011;45572;48.804;8.330;2023-10-19T00:18:01;25.13;;;16.38;;
3549;SDS011;45572;48.804;8.330;2023-10-19T00:20:47;29.70;;;17.70;;
3549;SDS011;45572;48.804;8.330;2023-10-19T00:23:19;30.70;;;17.02;;
3549;SDS011;45572;48.804;8.330;2023-10-19T00:25:55;28.00;;;17.02;;
3549;SDS011;45572;48.804;8.330;2023-10-19T00:28:22;29.63;;;18.80;;
3549;SDS011;45572;48.804;8.330;2023-10-19T00:30:55;26.70;;;17.88;;
3549;SDS011;45572;48.804;8.330;2023-10-19T00:33:29;32.15;;;18.83;;
3549;SDS011;45572;48.804;8.330;2023-10-19T00:35:59;31.42;;;19.65;;
3549;SDS011;45572;48.804;8.330;2023-10-19T00:38:35;26.70;;;18.45;;
3549;SDS011;45572;48.804;8.330;2023-10-19T00:41:08;36.10;;;19.85;;
3549;SDS011;45572;48.804;8.330;2023-10-19T00:43:40;27.38;;;18.80;;
3549;SDS011;45572;48.804;8.330;2023-10-19T00:46:13;33.78;;;20.15;;
3549;SDS011;45572;48.804;8.330;2023-10-19T00:48:53;33.08;;;18.65;;
3549;SDS011;45572;48.804;8.330;2023-10-19T00:51:25;26.77;;;18.25;;
3549;SDS011;45572;48.804;8.330;2023-10-19T00:54:08;31.80;;;19.70;;
3549;SDS011;45572;48.804;8.330;2023-10-19T00:56:41;32.97;;;18.55;;
3549;SDS011;45572;48.804;8.330;2023-10-19T00:59:15;27.45;;;17.90;;
3549;SDS011;45572;48.804;8.330;2023-10-19T01:01:50;36.78;;;19.55;;
3549;SDS011;45572;48.804;8.330;2023-10-19T01:04:22;33.78;;;18.10;;
3549;SDS011;45572;48.804;8.330;2023-10-19T01:06:52;28.30;;;17.75;;
3549;SDS011;45572;48.804;8.330;2023-10-19T01:09:31;23.95;;;16.95;;
3549;SDS011;45572;48.804;8.330;2023-10-19T01:12:01;28.58;;;18.05;;
3549;SDS011;45572;48.804;8.330;2023-10-19T01:15:00;30.25;;;17.60;;
3549;SDS011;45572;48.804;8.330;2023-10-19T01:17:33;29.58;;;16.65;;
3549;SDS011;45572;48.804;8.330;2023-10-19T01:20:07;27.08;;;16.30;;
3549;SDS011;45572;48.804;8.330;2023-10-19T01:22:48;23.85;;;15.00;;
3549;SDS011;45572;48.804;8.330;2023-10-19T01:25:19;28.08;;;17.05;;
3549;SDS011;45572;48.804;8.330;2023-10-19T01:28:01;23.45;;;14.52;;
3549;SDS011;45572;48.804;8.330;2023-10-19T01:30:35;28.52;;;15.82;;
3549;SDS011;45572;48.804;8.330;2023-10-19T01:33:05;19.83;;;13.80;;
3549;SDS011;45572;48.804;8.330;2023-10-19T01:35:39;25.77;;;15.07;;
3549;SDS011;45572;48.804;8.330;2023-10-19T01:38:23;27.33;;;17.60;;
3549;SDS011;45572;48.804;8.330;2023-10-19T01:40:51;30.08;;;16.73;;
3549;SDS011;45572;48.804;8.330;2023-10-19T01:43:21;30.23;;;17.70;;
3549;SDS011;45572;48.804;8.330;2023-10-19T01:45:52;25.52;;;17.02;;
3549;SDS011;45572;48.804;8.330;2023-10-19T01:48:21;27.33;;;16.52;;
3549;SDS011;45572;48.804;8.330;2023-10-19T01:50:54;23.15;;;15.70;;
3549;SDS011;45572;48.804;8.330;2023-10-19T01:53:23;27.50;;;15.43;;
3549;SDS011;45572;48.804;8.330;2023-10-19T01:55:52;24.88;;;16.63;;
3549;SDS011;45572;48.804;8.330;2023-10-19T01:58:24;25.92;;;15.55;;
3549;SDS011;45572;48.804;8.330;2023-10-19T02:00:53;27.45;;;15.82;;
3549;SDS011;45572;48.804;8.330;2023-10-19T02:03:22;31.20;;;16.52;;
3549;SDS011;45572;48.804;8.330;2023-10-19T02:05:56;28.27;;;16.67;;
3549;SDS011;45572;48.804;8.330;2023-10-19T02:08:27;27.08;;;16.27;;
3549;SDS011;45572;48.804;8.330;2023-10-19T02:10:55;25.15;;;15.75;;
3549;SDS011;45572;48.804;8.330;2023-10-19T02:13:24;22.80;;;14.82;;
3549;SDS011;45572;48.804;8.330;2023-10-19T02:15:52;22.60;;;15.75;;
3549;SDS011;45572;48.804;8.330;2023-10-19T02:18:19;21.75;;;14.10;;
3549;SDS011;45572;48.804;8.330;2023-10-19T02:20:47;20.85;;;13.60;;
3549;SDS011;45572;48.804;8.330;2023-10-19T02:23:14;20.17;;;13.80;;
3549;SDS011;45572;48.804;8.330;2023-10-19T02:25:44;23.85;;;14.93;;
3549;SDS011;45572;48.804;8.330;2023-10-19T02:28:13;23.05;;;15.05;;
3549;SDS011;45572;48.804;8.330;2023-10-19T02:30:41;23.52;;;14.00;;
3549;SDS011;45572;48.804;8.330;2023-10-19T02:33:09;26.02;;;13.25;;
3549;SDS011;45572;48.804;8.330;2023-10-19T02:35:38;24.85;;;12.95;;
3549;SDS011;45572;48.804;8.330;2023-10-19T02:38:07;16.52;;;12.10;;
3549;SDS011;45572;48.804;8.330;2023-10-19T02:40:35;19.90;;;12.90;;
3549;SDS011;45572;48.804;8.330;2023-10-19T02:43:05;19.27;;;12.50;;
3549;SDS011;45572;48.804;8.330;2023-10-19T02:45:34;19.77;;;14.05;;
3549;SDS011;45572;48.804;8.330;2023-10-19T02:48:01;19.52;;;14.32;;
3549;SDS011;45572;48.804;8.330;2023-10-19T02:50:30;19.92;;;14.43;;
3549;SDS011;45572;48.804;8.330;2023-10-19T02:53:00;23.50;;;15.50;;
3549;SDS011;45572;48.804;8.330;2023-10-19T02:55:30;20.90;;;13.25;;
3549;SDS011;45572;48.804;8.330;2023-10-19T02:57:58;23.05;;;14.90;;
3549;SDS011;45572;48.804;8.330;2023-10-19T03:00:27;22.05;;;14.20;;
3549;SDS011;45572;48.804;8.330;2023-10-19T03:03:00;23.27;;;13.98;;
3549;SDS011;45572;48.804;8.330;2023-10-19T03:05:28;26.92;;;12.90;;
3549;SDS011;45572;48.804;8.330;2023-10-19T03:07:56;23.33;;;13.32;;
3549;SDS011;45572;48.804;8.330;2023-10-19T03:10:24;22.27;;;12.77;;
3549;SDS011;45572;48.804;8.330;2023-10-19T03:13:00;26.10;;;14.90;;
3549;SDS011;45572;48.804;8.330;2023-10-19T03:15:34;30.73;;;14.40;;
3549;SDS011;45572;48.804;8.330;2023-10-19T03:18:01;27.38;;;15.82;;
3549;SDS011;45572;48.804;8.330;2023-10-19T03:20:31;30.52;;;15.93;;
3549;SDS011;45572;48.804;8.330;2023-10-19T03:23:00;33.22;;;17.92;;
3549;SDS011;45572;48.804;8.330;2023-10-19T03:25:28;35.22;;;17.85;;
3549;SDS011;45572;48.804;8.330;2023-10-19T03:28:12;34.85;;;17.92;;
3549;SDS011;45572;48.804;8.330;2023-10-19T03:30:44;35.25;;;17.40;;
3549;SDS011;45572;48.804;8.330;2023-10-19T03:33:13;38.10;;;19.48;;
3549;SDS011;45572;48.804;8.330;2023-10-19T03:35:44;34.50;;;17.70;;
3549;SDS011;45572;48.804;8.330;2023-10-19T03:38:13;35.55;;;18.40;;
3549;SDS011;45572;48.804;8.330;2023-10-19T03:40:43;34.40;;;17.92;;
3549;SDS011;45572;48.804;8.330;2023-10-19T03:43:17;37.13;;;20.60;;
3549;SDS011;45572;48.804;8.330;2023-10-19T03:45:49;32.58;;;16.40;;
3549;SDS011;45572;48.804;8.330;2023-10-19T03:48:19;33.63;;;17.25;;
3549;SDS011;45572;48.804;8.330;2023-10-19T03:50:53;41.28;;;19.80;;
3549;SDS011;45572;48.804;8.330;2023-10-19T03:53:23;41.60;;;19.38;;
3549;SDS011;45572;48.804;8.330;2023-10-19T03:55:51;39.63;;;19.45;;
3549;SDS011;45572;48.804;8.330;2023-10-19T03:58:23;32.83;;;16.98;;
3549;SDS011;45572;48.804;8.330;2023-10-19T04:00:56;50.35;;;18.52;;
3549;SDS011;45572;48.804;8.330;2023-10-19T04:03:31;51.13;;;19.50;;
3549;SDS011;45572;48.804;8.330;2023-10-19T04:06:01;37.25;;;18.27;;
3549;SDS011;45572;48.804;8.330;2023-10-19T04:08:31;62.83;;;20.95;;
3549;SDS011;45572;48.804;8.330;2023-10-19T04:11:03;49.90;;;20.58;;
3549;SDS011;45572;48.804;8.330;2023-10-19T04:13:48;64.85;;;20.30;;
3549;SDS011;45572;48.804;8.330;2023-10-19T04:16:21;85.55;;;23.15;;
3549;SDS011;45572;48.804;8.330;2023-10-19T04:18:49;49.40;;;19.95;;
3549;SDS011;45572;48.804;8.330;2023-10-19T04:21:17;76.47;;;19.77;;
3549;SDS011;45572;48.804;8.330;2023-10-19T04:23:44;81.00;;;21.75;;
3549;SDS011;45572;48.804;8.330;2023-10-19T04:26:13;97.38;;;24.45;;
3549;SDS011;45572;48.804;8.330;2023-10-19T04:28:44;94.88;;;22.17;;
3549;SDS011;45572;48.804;8.330;2023-10-19T04:31:16;100.88;;;20.15;;
3549;SDS011;45572;48.804;8.330;2023-10-19T04:33:47;56.28;;;18.90;;
3549;SDS011;45572;48.804;8.330;2023-10-19T04:36:15;62.78;;;20.13;;
3549;SDS011;45572;48.804;8.330;2023-10-19T04:38:47;98.40;;;23.55;;
3549;SDS011;45572;48.804;8.330;2023-10-19T04:41:15;66.07;;;19.25;;
3549;SDS011;45572;48.804;8.330;2023-10-19T04:43:43;77.95;;;20.15;;
3549;SDS011;45572;48.804;8.330;2023-10-19T04:46:16;53.20;;;20.05;;
3549;SDS011;45572;48.804;8.330;2023-10-19T04:48:46;80.00;;;22.42;;
3549;SDS011;45572;48.804;8.330;2023-10-19T04:51:16;61.05;;;20.40;;
3549;SDS011;45572;48.804;8.330;2023-10-19T04:53:44;30.98;;;16.45;;
3549;SDS011;45572;48.804;8.330;2023-10-19T04:56:12;53.25;;;20.48;;
3549;SDS011;45572;48.804;8.330;2023-10-19T04:58:40;39.25;;;17.05;;
3549;SDS011;45572;48.804;8.330;2023-10-19T05:01:10;30.95;;;16.30;;
3549;SDS011;45572;48.804;8.330;2023-10-19T05:03:39;24.15;;;15.85;;
3549;SDS011;45572;48.804;8.330;2023-10-19T05:06:08;28.08;;;16.23;;
3549;SDS011;45572;48.804;8.330;2023-10-19T05:08:37;37.67;;;16.35;;
3549;SDS011;45572;48.804;8.330;2023-10-19T05:11:05;45.33;;;15.45;;
3549;SDS011;45572;48.804;8.330;2023-10-19T05:13:35;23.42;;;13.57;;
3549;SDS011;45572;48.804;8.330;2023-10-19T05:16:03;25.10;;;13.82;;
3549;SDS011;45572;48.804;8.330;2023-10-19T05:18:31;32.35;;;14.85;;
3549;SDS011;45572;48.804;8.330;2023-10-19T05:21:03;30.52;;;15.60;;
3549;SDS011;45572;48.804;8.330;2023-10-19T05:23:33;24.92;;;14.50;;
3549;SDS011;45572;48.804;8.330;2023-10-19T05:26:03;23.90;;;12.45;;
3549;SDS011;45572;48.804;8.330;2023-10-19T05:28:33;28.45;;;15.05;;
3549;SDS011;45572;48.804;8.330;2023-10-19T05:31:01;26.33;;;14.13;;
3549;SDS011;45572;48.804;8.330;2023-10-19T05:33:30;24.08;;;13.15;;
3549;SDS011;45572;48.804;8.330;2023-10-19T05:35:59;23.55;;;12.48;;
3549;SDS011;45572;48.804;8.330;2023-10-19T05:38:28;20.05;;;11.18;;
3549;SDS011;45572;48.804;8.330;2023-10-19T05:41:00;29.48;;;11.80;;
3549;SDS011;45572;48.804;8.330;2023-10-19T05:43:29;20.27;;;12.15;;
3549;SDS011;45572;48.804;8.330;2023-10-19T05:45:57;24.05;;;12.15;;
3549;SDS011;45572;48.804;8.330;2023-10-19T05:48:26;21.25;;;10.90;;
3549;SDS011;45572;48.804;8.330;2023-10-19T05:50:54;18.52;;;9.88;;
3549;SDS011;45572;48.804;8.330;2023-10-19T05:53:22;20.75;;;11.63;;
3549;SDS011;45572;48.804;8.330;2023-10-19T05:55:50;19.40;;;10.43;;
3549;SDS011;45572;48.804;8.330;2023-10-19T05:58:20;18.73;;;11.32;;
3549;SDS011;45572;48.804;8.330;2023-10-19T06:00:48;17.95;;;11.90;;
3549;SDS011;45572;48.804;8.330;2023-10-19T06:03:19;22.02;;;9.68;;
3549;SDS011;45572;48.804;8.330;2023-10-19T06:05:47;16.45;;;10.18;;
3549;SDS011;45572;48.804;8.330;2023-10-19T06:08:15;14.65;;;9.05;;
3549;SDS011;45572;48.804;8.330;2023-10-19T06:10:43;12.52;;;7.88;;
3549;SDS011;45572;48.804;8.330;2023-10-19T06:13:11;12.05;;;9.02;;
3549;SDS011;45572;48.804;8.330;2023-10-19T06:15:40;11.55;;;8.20;;
3549;SDS011;45572;48.804;8.330;2023-10-19T06:18:09;14.95;;;8.95;;
3549;SDS011;45572;48.804;8.330;2023-10-19T06:20:37;12.52;;;8.25;;
3549;SDS011;45572;48.804;8.330;2023-10-19T06:23:11;12.13;;;7.38;;
3549;SDS011;45572;48.804;8.330;2023-10-19T06:25:39;13.02;;;8.30;;
3549;SDS011;45572;48.804;8.330;2023-10-19T06:28:09;11.35;;;7.63;;
3549;SDS011;45572;48.804;8.330;2023-10-19T06:30:38;12.32;;;7.90;;
3549;SDS011;45572;48.804;8.330;2023-10-19T06:33:08;13.60;;;8.85;;
3549;SDS011;45572;48.804;8.330;2023-10-19T06:35:37;12.50;;;8.60;;
3549;SDS011;45572;48.804;8.330;2023-10-19T06:38:06;10.55;;;7.45;;
3549;SDS011;45572;48.804;8.330;2023-10-19T06:40:36;13.55;;;11.10;;
3549;SDS011;45572;48.804;8.330;2023-10-19T06:43:04;14.00;;;9.25;;
3549;SDS011;45572;48.804;8.330;2023-10-19T06:45:32;8.63;;;6.55;;
3549;SDS011;45572;48.804;8.330;2023-10-19T06:48:02;12.07;;;7.13;;
3549;SDS011;45572;48.804;8.330;2023-10-19T06:50:31;11.63;;;7.93;;
3549;SDS011;45572;48.804;8.330;2023-10-19T06:52:59;12.32;;;7.38;;
3549;SDS011;45572;48.804;8.330;2023-10-19T06:55:32;9.60;;;7.30;;
3549;SDS011;45572;48.804;8.330;2023-10-19T06:58:01;12.00;;;7.88;;
3549;SDS011;45572;48.804;8.330;2023-10-19T07:00:30;8.35;;;6.72;;
3549;SDS011;45572;48.804;8.330;2023-10-19T07:03:01;9.80;;;6.30;;
3549;SDS011;45572;48.804;8.330;2023-10-19T07:05:30;11.13;;;7.32;;
3549;SDS011;45572;48.804;8.330;2023-10-19T07:07:58;10.32;;;6.80;;
3549;SDS011;45572;48.804;8.330;2023-10-19T07:10:28;7.22;;;6.07;;
3549;SDS011;45572;48.804;8.330;2023-10-19T07:12:56;9.90;;;6.30;;
3549;SDS011;45572;48.804;8.330;2023-10-19T07:15:25;7.43;;;5.78;;
3549;SDS011;45572;48.804;8.330;2023-10-19T07:17:54;10.65;;;7.72;;
3549;SDS011;45572;48.804;8.330;2023-10-19T07:20:24;7.38;;;5.95;;
3549;SDS011;45572;48.804;8.330;2023-10-19T07:22:53;8.10;;;6.60;;
3549;SDS011;45572;48.804;8.330;2023-10-19T07:25:23;8.95;;;6.95;;
3549;SDS011;45572;48.804;8.330;2023-10-19T07:27:52;10.02;;;7.07;;
3549;SDS011;45572;48.804;8.330;2023-10-19T07:30:20;9.55;;;6.05;;
3549;SDS011;45572;48.804;8.330;2023-10-19T07:32:52;7.72;;;5.70;;
3549;SDS011;45572;48.804;8.330;2023-10-19T07:35:28;7.60;;;5.43;;
3549;SDS011;45572;48.804;8.330;2023-10-19T07:38:01;9.10;;;6.20;;
3549;SDS011;45572;48.804;8.330;2023-10-19T07:40:31;14.80;;;8.23;;
3549;SDS011;45572;48.804;8.330;2023-10-19T07:43:00;16.75;;;11.70;;
3549;SDS011;45572;48.804;8.330;2023-10-19T07:45:30;18.02;;;11.40;;
3549;SDS011;45572;48.804;8.330;2023-10-19T07:47:58;18.33;;;10.32;;
3549;SDS011;45572;48.804;8.330;2023-10-19T07:50:34;20.23;;;10.68;;
3549;SDS011;45572;48.804;8.330;2023-10-19T07:53:03;18.35;;;11.07;;
3549;SDS011;45572;48.804;8.330;2023-10-19T07:55:31;17.40;;;10.75;;
3549;SDS011;45572;48.804;8.330;2023-10-19T07:57:59;18.88;;;10.23;;
3549;SDS011;45572;48.804;8.330;2023-10-19T08:00:30;15.88;;;10.93;;
3549;SDS011;45572;48.804;8.330;2023-10-19T08:03:00;12.80;;;9.20;;
3549;SDS011;45572;48.804;8.330;2023-10-19T08:05:29;13.25;;;9.15;;
3549;SDS011;45572;48.804;8.330;2023-10-19T08:07:59;13.23;;;9.30;;
3549;SDS011;45572;48.804;8.330;2023-10-19T08:10:27;12.23;;;8.25;;
3549;SDS011;45572;48.804;8.330;2023-10-19T08:12:55;10.43;;;7.47;;
3549;SDS011;45572;48.804;8.330;2023-10-19T08:15:25;10.87;;;7.97;;
3549;SDS011;45572;48.804;8.330;2023-10-19T08:17:55;10.17;;;7.10;;
3549;SDS011;45572;48.804;8.330;2023-10-19T08:20:23;9.50;;;6.93;;
3549;SDS011;45572;48.804;8.330;2023-10-19T08:22:54;9.80;;;6.77;;
3549;SDS011;45572;48.804;8.330;2023-10-19T08:25:25;8.43;;;6.30;;
3549;SDS011;45572;48.804;8.330;2023-10-19T08:28:13;10.63;;;7.30;;
3549;SDS011;45572;48.804;8.330;2023-10-19T08:30:42;9.10;;;6.37;;
3549;SDS011;45572;48.804;8.330;2023-10-19T08:33:11;10.53;;;6.17;;
3549;SDS011;45572;48.804;8.330;2023-10-19T08:35:40;13.80;;;7.40;;
3549;SDS011;45572;48.804;8.330;2023-10-19T08:38:09;13.07;;;7.30;;
3549;SDS011;45572;48.804;8.330;2023-10-19T08:40:39;11.53;;;7.23;;
3549;SDS011;45572;48.804;8.330;2023-10-19T08:43:07;8.80;;;5.83;;
3549;SDS011;45572;48.804;8.330;2023-10-19T08:45:39;10.23;;;8.50;;
3549;SDS011;45572;48.804;8.330;2023-10-19T08:48:10;8.77;;;6.40;;
3549;SDS011;45572;48.804;8.330;2023-10-19T08:50:39;10.47;;;5.93;;
3549;SDS011;45572;48.804;8.330;2023-10-19T08:53:09;8.60;;;5.60;;
3549;SDS011;45572;48.804;8.330;2023-10-19T08:55:42;6.83;;;4.97;;
3549;SDS011;45572;48.804;8.330;2023-10-19T08:58:17;10.30;;;5.63;;
3549;SDS011;45572;48.804;8.330;2023-10-19T09:00:46;7.80;;;6.17;;
3549;SDS011;45572;48.804;8.330;2023-10-19T09:03:18;7.13;;;5.40;;
3549;SDS011;45572;48.804;8.330;2023-10-19T09:05:48;10.50;;;6.07;;
3549;SDS011;45572;48.804;8.330;2023-10-19T09:08:17;10.10;;;5.83;;
3549;SDS011;45572;48.804;8.330;2023-10-19T09:10:50;9.10;;;6.20;;
3549;SDS011;45572;48.804;8.330;2023-10-19T09:13:21;9.70;;;6.30;;
3549;SDS011;45572;48.804;8.330;2023-10-19T09:15:52;9.60;;;6.30;;
3549;SDS011;45572;48.804;8.330;2023-10-19T09:18:23;6.83;;;5.93;;
3549;SDS011;45572;48.804;8.330;2023-10-19T09:20:56;8.97;;;6.33;;
3549;SDS011;45572;48.804;8.330;2023-10-19T09:23:34;7.90;;;5.70;;
3549;SDS011;45572;48.804;8.330;2023-10-19T09:26:05;8.77;;;6.40;;
3549;SDS011;45572;48.804;8.330;2023-10-19T09:28:35;10.67;;;6.80;;
3549;SDS011;45572;48.804;8.330;2023-10-19T09:31:05;8.83;;;6.70;;
3549;SDS011;45572;48.804;8.330;2023-10-19T09:33:37;13.53;;;7.37;;
3549;SDS011;45572;48.804;8.330;2023-10-19T09:36:10;9.33;;;7.10;;
3549;SDS011;45572;48.804;8.330;2023-10-19T09:38:45;10.27;;;7.37;;
3549;SDS011;45572;48.804;8.330;2023-10-19T09:41:18;9.37;;;6.90;;
3549;SDS011;45572;48.804;8.330;2023-10-19T09:43:48;13.37;;;7.93;;
3549;SDS011;45572;48.804;8.330;2023-10-19T09:46:21;14.67;;;7.03;;
3549;SDS011;45572;48.804;8.330;2023-10-19T09:48:55;9.37;;;7.73;;
3549;SDS011;45572;48.804;8.330;2023-10-19T09:51:23;8.50;;;6.60;;
3549;SDS011;45572;48.804;8.330;2023-10-19T09:53:53;15.20;;;8.00;;
3549;SDS011;45572;48.804;8.330;2023-10-19T09:56:32;14.70;;;8.23;;
3549;SDS011;45572;48.804;8.330;2023-10-19T09:59:05;10.77;;;8.70;;
3549;SDS011;45572;48.804;8.330;2023-10-19T10:04:32;11.97;;;9.83;;
3549;SDS011;45572;48.804;8.330;2023-10-19T10:07:02;14.30;;;10.37;;
3549;SDS011;45572;48.804;8.330;2023-10-19T10:09:34;13.87;;;9.70;;
3549;SDS011;45572;48.804;8.330;2023-10-19T10:14:54;14.27;;;10.43;;
3549;SDS011;45572;48.804;8.330;2023-10-19T10:17:25;17.20;;;10.23;;
3549;SDS011;45572;48.804;8.330;2023-10-19T10:19:56;21.40;;;11.73;;
3549;SDS011;45572;48.804;8.330;2023-10-19T10:25:48;16.93;;;12.90;;
3549;SDS011;45572;48.804;8.330;2023-10-19T10:28:20;19.40;;;11.30;;
3549;SDS011;45572;48.804;8.330;2023-10-19T10:33:41;20.57;;;14.37;;
3549;SDS011;45572;48.804;8.330;2023-10-19T10:36:12;21.67;;;13.37;;
3549;SDS011;45572;48.804;8.330;2023-10-19T10:38:42;20.63;;;13.37;;
3549;SDS011;45572;48.804;8.330;2023-10-19T10:41:10;21.77;;;14.10;;
3549;SDS011;45572;48.804;8.330;2023-10-19T10:46:23;18.17;;;13.40;;
3549;SDS011;45572;48.804;8.330;2023-10-19T10:48:52;21.47;;;12.77;;
3549;SDS011;45572;48.804;8.330;2023-10-19T10:51:21;19.27;;;12.10;;
3549;SDS011;45572;48.804;8.330;2023-10-19T10:53:51;16.87;;;12.50;;
3549;SDS011;45572;48.804;8.330;2023-10-19T10:56:21;23.73;;;14.50;;
3549;SDS011;45572;48.804;8.330;2023-10-19T10:58:50;22.42;;;14.73;;
3549;SDS011;45572;48.804;8.330;2023-10-19T11:04:05;22.48;;;15.38;;
3549;SDS011;45572;48.804;8.330;2023-10-19T11:06:34;23.95;;;14.07;;
3549;SDS011;45572;48.804;8.330;2023-10-19T11:09:16;16.30;;;11.70;;
3549;SDS011;45572;48.804;8.330;2023-10-19T11:11:45;26.40;;;13.80;;
3549;SDS011;45572;48.804;8.330;2023-10-19T11:14:15;22.00;;;13.30;;
3549;SDS011;45572;48.804;8.330;2023-10-19T11:16:43;19.52;;;12.15;;
3549;SDS011;45572;48.804;8.330;2023-10-19T11:19:11;21.98;;;13.18;;
3549;SDS011;45572;48.804;8.330;2023-10-19T11:21:50;22.40;;;13.52;;
3549;SDS011;45572;48.804;8.330;2023-10-19T11:24:25;19.48;;;11.75;;
3549;SDS011;45572;48.804;8.330;2023-10-19T11:26:58;20.20;;;12.73;;
3549;SDS011;45572;48.804;8.330;2023-10-19T11:29:26;21.50;;;13.00;;
3549;SDS011;45572;48.804;8.330;2023-10-19T11:31:56;26.33;;;12.55;;
3549;SDS011;45572;48.804;8.330;2023-10-19T11:34:27;27.33;;;14.90;;
3549;SDS011;45572;48.804;8.330;2023-10-19T11:36:57;22.98;;;14.55;;
3549;SDS011;45572;48.804;8.330;2023-10-19T11:39:28;26.03;;;15.50;;
3549;SDS011;45572;48.804;8.330;2023-10-19T11:41:57;18.40;;;14.20;;
3549;SDS011;45572;48.804;8.330;2023-10-19T11:44:26;23.37;;;12.73;;
3549;SDS011;45572;48.804;8.330;2023-10-19T11:46:55;23.10;;;15.00;;
3549;SDS011;45572;48.804;8.330;2023-10-19T11:49:24;22.80;;;15.20;;
3549;SDS011;45572;48.804;8.330;2023-10-19T11:51:52;19.70;;;13.20;;
3549;SDS011;45572;48.804;8.330;2023-10-19T11:54:20;28.10;;;14.40;;
3549;SDS011;45572;48.804;8.330;2023-10-19T11:56:50;19.73;;;13.37;;
3549;SDS011;45572;48.804;8.330;2023-10-19T11:59:19;17.83;;;12.20;;
3549;SDS011;45572;48.804;8.330;2023-10-19T12:01:47;22.97;;;12.17;;
3549;SDS011;45572;48.804;8.330;2023-10-19T12:04:15;13.20;;;8.83;;
3549;SDS011;45572;48.804;8.330;2023-10-19T12:06:46;10.77;;;8.00;;
3549;SDS011;45572;48.804;8.330;2023-10-19T12:09:16;10.87;;;8.13;;
3549;SDS011;45572;48.804;8.330;2023-10-19T12:11:53;13.23;;;8.03;;
3549;SDS011;45572;48.804;8.330;2023-10-19T12:14:24;12.20;;;8.10;;
3549;SDS011;45572;48.804;8.330;2023-10-19T12:16:52;17.40;;;8.30;;
3549;SDS011;45572;48.804;8.330;2023-10-19T12:19:24;12.13;;;10.53;;
3549;SDS011;45572;48.804;8.330;2023-10-19T12:21:53;11.87;;;8.60;;
3549;SDS011;45572;48.804;8.330;2023-10-19T12:24:21;10.20;;;8.37;;
3549;SDS011;45572;48.804;8.330;2023-10-19T12:26:56;13.70;;;8.37;;
3549;SDS011;45572;48.804;8.330;2023-10-19T12:29:24;8.77;;;7.70;;
3549;SDS011;45572;48.804;8.330;2023-10-19T12:31:52;12.03;;;8.03;;
3549;SDS011;45572;48.804;8.330;2023-10-19T12:34:21;18.70;;;11.30;;
3549;SDS011;45572;48.804;8.330;2023-10-19T12:36:49;21.70;;;10.90;;
3549;SDS011;45572;48.804;8.330;2023-10-19T12:39:18;18.93;;;12.10;;
3549;SDS011;45572;48.804;8.330;2023-10-19T12:42:01;20.77;;;10.30;;
3549;SDS011;45572;48.804;8.330;2023-10-19T12:44:31;10.17;;;8.27;;
3549;SDS011;45572;48.804;8.330;2023-10-19T12:47:05;11.67;;;6.73;;
3549;SDS011;45572;48.804;8.330;2023-10-19T12:49:39;14.40;;;6.33;;
3549;SDS011;45572;48.804;8.330;2023-10-19T12:52:08;11.60;;;7.53;;
3549;SDS011;45572;48.804;8.330;2023-10-19T12:54:36;10.13;;;6.40;;
3549;SDS011;45572;48.804;8.330;2023-10-19T12:57:07;10.20;;;5.50;;
3549;SDS011;45572;48.804;8.330;2023-10-19T12:59:36;15.03;;;5.13;;
3549;SDS011;45572;48.804;8.330;2023-10-19T13:02:05;11.00;;;5.20;;
3549;SDS011;45572;48.804;8.330;2023-10-19T13:04:35;10.20;;;5.70;;
3549;SDS011;45572;48.804;8.330;2023-10-19T13:07:04;10.70;;;5.23;;
3549;SDS011;45572;48.804;8.330;2023-10-19T13:09:32;8.30;;;4.17;;
3549;SDS011;45572;48.804;8.330;2023-10-19T13:12:07;11.20;;;6.70;;
3549;SDS011;45572;48.804;8.330;2023-10-19T13:14:36;22.87;;;13.83;;
3549;SDS011;45572;48.804;8.330;2023-10-19T13:17:05;22.50;;;14.80;;
3549;SDS011;45572;48.804;8.330;2023-10-19T13:19:33;21.00;;;14.90;;
3549;SDS011;45572;48.804;8.330;2023-10-19T13:22:03;21.30;;;13.97;;
3549;SDS011;45572;48.804;8.330;2023-10-19T13:24:34;17.50;;;13.17;;
3549;SDS011;45572;48.804;8.330;2023-10-19T13:27:08;18.50;;;12.70;;
3549;SDS011;45572;48.804;8.330;2023-10-19T13:29:37;15.80;;;11.10;;
3549;SDS011;45572;48.804;8.330;2023-10-19T13:32:07;18.80;;;11.20;;
3549;SDS011;45572;48.804;8.330;2023-10-19T13:34:37;18.50;;;11.27;;
3549;SDS011;45572;48.804;8.330;2023-10-19T13:37:06;20.23;;;13.27;;
3549;SDS011;45572;48.804;8.330;2023-10-19T13:39:34;17.63;;;11.00;;
3549;SDS011;45572;48.804;8.330;2023-10-19T13:42:03;15.93;;;11.20;;
3549;SDS011;45572;48.804;8.330;2023-10-19T13:44:33;16.47;;;11.50;;
3549;SDS011;45572;48.804;8.330;2023-10-19T13:47:01;16.40;;;10.90;;
3549;SDS011;45572;48.804;8.330;2023-10-19T13:49:31;20.07;;;10.20;;
3549;SDS011;45572;48.804;8.330;2023-10-19T13:51:59;21.40;;;10.23;;
3549;SDS011;45572;48.804;8.330;2023-10-19T13:54:30;12.90;;;9.83;;
3549;SDS011;45572;48.804;8.330;2023-10-19T13:56:59;18.07;;;10.43;;
3549;SDS011;45572;48.804;8.330;2023-10-19T13:59:28;15.40;;;10.47;;
3549;SDS011;45572;48.804;8.330;2023-10-19T14:01:57;12.50;;;9.20;;
3549;SDS011;45572;48.804;8.330;2023-10-19T14:04:25;15.13;;;9.07;;
3549;SDS011;45572;48.804;8.330;2023-10-19T14:06:53;15.10;;;10.70;;
3549;SDS011;45572;48.804;8.330;2023-10-19T14:09:21;18.77;;;9.57;;
3549;SDS011;45572;48.804;8.330;2023-10-19T14:11:53;13.33;;;9.20;;
3549;SDS011;45572;48.804;8.330;2023-10-19T14:14:21;14.63;;;8.03;;
3549;SDS011;45572;48.804;8.330;2023-10-19T14:16:49;9.57;;;7.57;;
3549;SDS011;45572;48.804;8.330;2023-10-19T14:19:18;19.07;;;12.00;;
3549;SDS011;45572;48.804;8.330;2023-10-19T14:21:46;20.37;;;12.40;;
3549;SDS011;45572;48.804;8.330;2023-10-19T14:24:14;22.97;;;14.63;;
3549;SDS011;45572;48.804;8.330;2023-10-19T14:26:44;22.40;;;13.37;;
3549;SDS011;45572;48.804;8.330;2023-10-19T14:29:12;24.10;;;13.90;;
3549;SDS011;45572;48.804;8.330;2023-10-19T14:31:40;19.80;;;12.43;;
3549;SDS011;45572;48.804;8.330;2023-10-19T14:34:09;22.30;;;12.47;;
3549;SDS011;45572;48.804;8.330;2023-10-19T14:36:38;26.87;;;13.00;;
3549;SDS011;45572;48.804;8.330;2023-10-19T14:39:06;15.23;;;11.83;;
3549;SDS011;45572;48.804;8.330;2023-10-19T14:41:35;20.10;;;12.53;;
3549;SDS011;45572;48.804;8.330;2023-10-19T14:44:03;16.77;;;11.57;;
3549;SDS011;45572;48.804;8.330;2023-10-19T14:46:33;14.83;;;8.73;;
3549;SDS011;45572;48.804;8.330;2023-10-19T14:49:01;9.10;;;6.13;;
3549;SDS011;45572;48.804;8.330;2023-10-19T14:51:29;5.77;;;4.73;;
3549;SDS011;45572;48.804;8.330;2023-10-19T14:53:59;8.20;;;5.60;;
3549;SDS011;45572;48.804;8.330;2023-10-19T14:56:27;4.77;;;4.13;;
3549;SDS011;45572;48.804;8.330;2023-10-19T14:58:55;4.57;;;3.43;;
3549;SDS011;45572;48.804;8.330;2023-10-19T15:01:25;3.10;;;2.70;;
3549;SDS011;45572;48.804;8.330;2023-10-19T15:03:53;5.40;;;3.40;;
3549;SDS011;45572;48.804;8.330;2023-10-19T15:06:21;3.60;;;2.83;;
3549;SDS011;45572;48.804;8.330;2023-10-19T15:08:49;6.27;;;3.63;;
3549;SDS011;45572;48.804;8.330;2023-10-19T15:11:19;6.37;;;4.20;;
3549;SDS011;45572;48.804;8.330;2023-10-19T15:13:48;9.77;;;3.47;;
3549;SDS011;45572;48.804;8.330;2023-10-19T15:16:17;7.10;;;2.87;;